Golden Triangle Regional Air, Mississippi
Current Conditions -  °F | °C
As of 4:35 AM on Friday 24 Oct 2014 (Local Time) from KGTR Reporting Station
Clear Clear  
Wind Chill: 11°   Ceiling: Unl
Heat Index: 11°   Visibility: 10mi
Dew Point:   Wind: 3mph
Humidity: 76%   Direction: 320°NW
Pressure: 30.1"   Gusts: NA
Location:  33.455°N, 88.5512°W
Report Text: KGTR 240935Z AUTO 32003KT 10SM CLR 11/07 A3010 RMK AO1
Loading
Personal Weather Stations






























Interactive Weather Map
Tropical Storm Tracking
New forecast layout! Learn more

10-Day Weather Forecast

Advertisements
Track Severe Weather on mobile